Cincinnati, Ohio
Traffic Map
Current Weather Conditions
Cincinnati, Ohio
Clear
Clear
31°
Feels Like: 31°
Wind Chill: 31° Ceiling: Unl
Heat Index: 31° Visibility: 10mi
Dew Point: 21° Wind: 0mph
Humidity: 67% Direction: ° ()
Pressure: 30.07in Gusts: 0mph
Raw Report DataKLUK 110353Z 00000KT 10SM CLR M01/M06 A3007 RMK AO2 SLP188 T10061061
Traffic Incident Summary
Active as of:
Severity:
Category:
InformationThere was an issue retrieving the traffic information for this location. Please try a different location or try again shortly.
Advertisements